createdAt,value
2019-04-20T00:01:47.967Z,55.26
2019-04-20T00:04:23.439Z,55.36
2019-04-20T00:06:53.954Z,55.50
2019-04-20T00:09:28.654Z,55.47
2019-04-20T00:12:06.260Z,55.57
2019-04-20T00:14:29.616Z,55.68
2019-04-20T00:16:58.824Z,55.84
2019-04-20T00:19:37.267Z,55.84
2019-04-20T00:22:13.251Z,55.95
2019-04-20T00:25:10.059Z,55.90
2019-04-20T00:28:12.985Z,55.75
2019-04-20T00:30:46.832Z,55.97
2019-04-20T00:33:07.309Z,56.10
2019-04-20T00:35:31.366Z,56.37
2019-04-20T00:38:01.633Z,56.61
2019-04-20T00:40:32.644Z,56.77
2019-04-20T00:43:03.138Z,57.01
2019-04-20T00:45:36.613Z,57.18
2019-04-20T00:48:19.767Z,57.41
2019-04-20T00:50:55.539Z,57.59
2019-04-20T00:53:21.767Z,57.63
2019-04-20T00:55:44.338Z,57.72
2019-04-20T00:58:20.069Z,57.89
2019-04-20T01:01:07.273Z,58.11
2019-04-20T01:03:34.004Z,58.27
2019-04-20T01:06:42.426Z,58.37
2019-04-20T01:09:22.348Z,58.36
2019-04-20T01:11:52.884Z,58.26
2019-04-20T01:14:31.154Z,58.28
2019-04-20T01:17:01.800Z,58.32
2019-04-20T01:19:26.877Z,58.29
2019-04-20T01:22:02.350Z,58.43
2019-04-20T01:24:34.895Z,58.26
2019-04-20T01:27:04.131Z,58.26
2019-04-20T01:29:43.889Z,58.18
2019-04-20T01:32:15.013Z,58.19
2019-04-20T01:34:47.178Z,58.15
2019-04-20T01:37:21.217Z,57.99
2019-04-20T01:39:48.285Z,58.12
2019-04-20T01:42:13.119Z,57.97
2019-04-20T01:44:47.313Z,57.91
2019-04-20T01:47:15.474Z,57.83
2019-04-20T01:49:48.629Z,57.67
2019-04-20T01:52:27.905Z,57.61
2019-04-20T01:55:23.040Z,57.56
2019-04-20T01:58:00.406Z,57.42
2019-04-20T02:00:46.043Z,57.22
2019-04-20T02:03:46.395Z,57.24
2019-04-20T02:06:19.734Z,57.25
2019-04-20T02:08:52.777Z,57.31
2019-04-20T02:11:26.020Z,57.33
2019-04-20T02:13:56.576Z,57.31
2019-04-20T02:16:32.918Z,57.37
2019-04-20T02:19:12.040Z,57.28
2019-04-20T02:21:45.005Z,57.28
2019-04-20T02:24:02.654Z,57.25
2019-04-20T02:26:32.253Z,57.18
2019-04-20T02:29:24.656Z,57.15
2019-04-20T02:32:17.897Z,57.02
2019-04-20T02:35:01.621Z,57.00
2019-04-20T02:37:58.413Z,56.94
2019-04-20T02:40:31.003Z,56.90
2019-04-20T02:42:59.799Z,56.75
2019-04-20T02:45:33.368Z,56.64
2019-04-20T02:48:01.503Z,56.52
2019-04-20T02:50:30.776Z,56.45
2019-04-20T02:53:05.247Z,56.40
2019-04-20T02:55:48.199Z,56.50
2019-04-20T02:58:00.520Z,56.48
2019-04-20T03:00:54.704Z,56.59
2019-04-20T03:03:01.297Z,56.61
2019-04-20T03:05:30.827Z,56.70
2019-04-20T03:08:08.939Z,56.72
2019-04-20T03:10:46.434Z,56.74
2019-04-20T03:13:14.165Z,56.69
2019-04-20T03:15:49.761Z,56.67
2019-04-20T03:18:21.019Z,56.66
2019-04-20T03:20:53.681Z,56.67
2019-04-20T03:23:29.700Z,56.64
2019-04-20T03:26:19.325Z,56.68
2019-04-20T03:29:05.565Z,56.69
2019-04-20T03:36:59.378Z,56.79
2019-04-20T03:39:30.160Z,56.82
2019-04-20T03:41:46.947Z,56.82
2019-04-20T03:44:19.193Z,56.73
2019-04-20T03:46:51.972Z,56.88
2019-04-20T03:49:43.678Z,56.95
2019-04-20T03:52:24.554Z,57.20
2019-04-20T03:55:23.459Z,57.48
2019-04-20T03:57:57.488Z,57.45
2019-04-20T04:00:45.735Z,57.45
2019-04-20T04:06:09.537Z,57.56
2019-04-20T04:08:38.042Z,57.76
2019-04-20T04:11:21.046Z,57.72
2019-04-20T04:13:35.550Z,57.79
2019-04-20T04:16:10.401Z,57.97
2019-04-20T04:18:43.728Z,58.02
2019-04-20T04:21:18.286Z,58.20
2019-04-20T04:23:59.024Z,58.34
2019-04-20T04:26:31.112Z,58.45
2019-04-20T04:29:08.192Z,58.68
2019-04-20T04:31:36.209Z,58.86
2019-04-20T04:34:10.856Z,59.32
2019-04-20T04:36:43.233Z,59.63
2019-04-20T04:39:19.224Z,59.99
2019-04-20T04:41:59.923Z,60.11
2019-04-20T04:44:15.257Z,60.30
2019-04-20T04:46:33.903Z,60.22
2019-04-20T04:51:55.501Z,60.82
2019-04-20T04:54:28.931Z,62.03
2019-04-20T04:56:50.482Z,61.80
2019-04-20T04:59:21.377Z,61.40
2019-04-20T05:01:54.873Z,61.29
2019-04-20T05:05:05.614Z,61.02
2019-04-20T05:07:38.849Z,60.72
2019-04-20T05:09:59.151Z,60.67
2019-04-20T05:12:33.041Z,60.57
2019-04-20T05:15:10.144Z,60.38
2019-04-20T05:17:57.475Z,60.46
2019-04-20T05:20:24.233Z,60.25
2019-04-20T05:23:15.353Z,60.22
2019-04-20T05:26:07.385Z,60.14
2019-04-20T05:28:27.867Z,60.00
2019-04-20T05:30:52.491Z,59.87
2019-04-20T05:33:28.084Z,59.85
2019-04-20T05:36:16.355Z,59.82
2019-04-20T05:38:50.521Z,59.73
2019-04-20T05:41:11.708Z,59.53
2019-04-20T05:43:54.761Z,59.24
2019-04-20T05:46:32.040Z,59.10
2019-04-20T05:49:11.794Z,58.87
2019-04-20T05:54:09.790Z,58.37
2019-04-20T05:56:56.248Z,58.11
2019-04-20T05:59:11.161Z,57.83
2019-04-20T06:01:55.862Z,57.45
2019-04-20T06:04:28.722Z,57.22
2019-04-20T06:06:56.731Z,56.94
2019-04-20T06:09:28.490Z,56.46
2019-04-20T06:12:07.621Z,56.02
2019-04-20T06:14:48.276Z,55.58
2019-04-20T06:17:44.460Z,55.02
2019-04-20T06:20:21.543Z,54.48
2019-04-20T06:22:51.311Z,54.02
2019-04-20T06:28:01.062Z,52.78
2019-04-20T06:30:25.246Z,52.24
2019-04-20T06:34:12.959Z,51.80
2019-04-20T06:36:32.152Z,51.22
2019-04-20T06:41:51.871Z,50.00
2019-04-20T06:44:16.417Z,49.63
2019-04-20T06:46:50.558Z,49.29
2019-04-20T06:49:16.926Z,48.96
2019-04-20T06:52:01.692Z,48.72
2019-04-20T06:54:38.437Z,48.23
2019-04-20T06:57:10.266Z,47.93
2019-04-20T07:02:21.899Z,46.96
2019-04-20T07:05:07.964Z,46.66
2019-04-20T07:10:02.246Z,46.15
2019-04-20T07:12:22.862Z,45.75
2019-04-20T07:14:47.015Z,45.33
2019-04-20T07:20:09.886Z,44.69
2019-04-20T07:22:55.629Z,44.51
2019-04-20T07:25:24.514Z,44.18
2019-04-20T07:27:54.024Z,43.90
2019-04-20T07:30:24.139Z,43.57
2019-04-20T07:32:59.717Z,43.28
2019-04-20T07:35:30.763Z,43.15
2019-04-20T07:40:37.472Z,42.86
2019-04-20T07:43:04.688Z,42.49
2019-04-20T07:45:41.352Z,42.29
2019-04-20T07:50:37.448Z,42.03
2019-04-20T07:53:14.669Z,41.83
2019-04-20T07:55:55.127Z,41.61
2019-04-20T07:58:12.174Z,41.34
2019-04-20T08:01:05.735Z,39.84
2019-04-20T08:03:45.891Z,40.12
2019-04-20T08:06:18.084Z,39.77
2019-04-20T08:08:57.261Z,39.47
2019-04-20T08:11:36.613Z,39.00
2019-04-20T08:14:12.912Z,38.30
2019-04-20T08:16:47.064Z,38.13
2019-04-20T08:19:27.318Z,38.11
2019-04-20T08:21:58.696Z,37.84
2019-04-20T08:24:31.729Z,37.89
2019-04-20T08:26:55.021Z,37.69
2019-04-20T08:29:38.149Z,37.49
2019-04-20T08:32:27.093Z,37.57
2019-04-20T08:34:59.092Z,37.31
2019-04-20T08:37:25.748Z,36.54
2019-04-20T08:40:07.687Z,35.90
2019-04-20T08:42:40.429Z,35.89
2019-04-20T08:45:10.606Z,35.65
2019-04-20T08:47:46.859Z,35.03
2019-04-20T08:50:26.940Z,35.00
2019-04-20T08:55:19.351Z,34.25
2019-04-20T08:57:33.633Z,34.14
2019-04-20T09:00:11.049Z,33.61
2019-04-20T09:02:51.099Z,33.16
2019-04-20T09:05:30.423Z,33.11
2019-04-20T09:07:57.509Z,33.32
2019-04-20T09:10:39.211Z,33.08
2019-04-20T09:13:04.922Z,32.39
2019-04-20T09:15:23.367Z,32.44
2019-04-20T09:18:15.157Z,32.50
2019-04-20T09:20:44.682Z,31.80
2019-04-20T09:23:28.665Z,31.85
2019-04-20T09:28:30.873Z,31.12
2019-04-20T09:31:15.704Z,30.82
2019-04-20T09:34:20.273Z,30.85
2019-04-20T09:37:24.712Z,30.86
2019-04-20T09:40:03.400Z,30.33
2019-04-20T09:42:27.214Z,29.95
2019-04-20T09:45:00.897Z,29.48
2019-04-20T09:47:36.822Z,29.31
2019-04-20T09:50:21.431Z,29.24
2019-04-20T09:52:51.651Z,28.85
2019-04-20T09:55:18.174Z,28.96
2019-04-20T09:57:57.607Z,28.70
2019-04-20T10:00:30.895Z,28.58
2019-04-20T10:02:44.676Z,28.61
2019-04-20T10:05:15.649Z,28.56
2019-04-20T10:07:48.440Z,28.33
2019-04-20T10:10:29.681Z,28.27
2019-04-20T10:12:50.125Z,27.84
2019-04-20T10:15:23.488Z,27.89
2019-04-20T10:17:52.415Z,28.23
2019-04-20T10:20:29.672Z,28.20
2019-04-20T10:22:54.673Z,27.89
2019-04-20T10:25:24.936Z,28.20
2019-04-20T10:27:55.778Z,28.01
2019-04-20T10:30:26.353Z,27.69
2019-04-20T10:32:57.437Z,27.40
2019-04-20T10:35:28.037Z,27.63
2019-04-20T10:38:03.329Z,27.54
2019-04-20T10:40:46.387Z,27.54
2019-04-20T10:43:06.201Z,28.85
2019-04-20T10:45:36.968Z,28.38
2019-04-20T10:48:07.313Z,27.92
2019-04-20T10:50:38.871Z,27.70
2019-04-20T10:53:09.991Z,27.36
2019-04-20T10:55:40.359Z,27.35
2019-04-20T10:58:11.453Z,27.60
2019-04-20T11:00:44.235Z,28.24
2019-04-20T11:03:15.898Z,27.47
2019-04-20T11:05:46.978Z,27.03
2019-04-20T11:08:17.357Z,27.19
2019-04-20T11:10:59.277Z,26.99
2019-04-20T11:13:19.651Z,27.64
2019-04-20T11:15:50.534Z,26.76
2019-04-20T11:18:21.770Z,26.91
2019-04-20T11:20:53.263Z,27.13
2019-04-20T11:23:24.464Z,26.67
2019-04-20T11:25:56.007Z,26.43
2019-04-20T11:28:26.462Z,26.07
2019-04-20T11:30:56.745Z,25.99
2019-04-20T11:33:27.821Z,25.76
2019-04-20T11:35:59.111Z,25.79
2019-04-20T11:38:30.237Z,25.37
2019-04-20T11:41:10.610Z,25.33
2019-04-20T11:43:33.609Z,24.45
2019-04-20T11:46:04.807Z,24.58
2019-04-20T11:48:35.407Z,23.95
2019-04-20T11:51:05.910Z,23.85
2019-04-20T11:53:36.425Z,23.93
2019-04-20T11:56:14.461Z,24.14
2019-04-20T11:58:38.907Z,23.06
2019-04-20T12:01:34.745Z,22.63
2019-04-20T12:04:11.330Z,22.86
2019-04-20T12:06:31.158Z,22.98
2019-04-20T12:09:03.162Z,22.32
2019-04-20T12:11:45.430Z,22.60
2019-04-20T12:14:06.850Z,22.37
2019-04-20T12:16:37.566Z,21.42
2019-04-20T12:19:08.595Z,20.77
2019-04-20T12:21:39.190Z,20.32
2019-04-20T12:24:10.095Z,20.20
2019-04-20T12:26:40.659Z,19.56
2019-04-20T12:29:11.959Z,19.08
2019-04-20T12:31:44.376Z,19.37
2019-04-20T12:34:14.275Z,19.85
2019-04-20T12:36:44.853Z,18.42
2019-04-20T12:39:15.398Z,18.23
2019-04-20T12:41:52.961Z,18.46
2019-04-20T12:44:19.604Z,18.89
2019-04-20T12:46:49.997Z,18.51
2019-04-20T12:49:20.399Z,18.14
2019-04-20T12:51:57.370Z,18.20
2019-04-20T12:54:22.880Z,17.65
2019-04-20T12:56:53.160Z,17.67
2019-04-20T12:59:23.575Z,16.34
2019-04-20T13:01:55.103Z,16.66
2019-04-20T13:04:26.801Z,16.45
2019-04-20T13:06:59.609Z,16.11
2019-04-20T13:09:34.614Z,15.70
2019-04-20T13:12:23.584Z,15.67
2019-04-20T13:15:29.947Z,15.31
2019-04-20T13:18:01.347Z,15.44
2019-04-20T13:20:32.114Z,14.85
2019-04-20T13:23:03.927Z,14.79
2019-04-20T13:25:34.972Z,14.45
2019-04-20T13:28:05.460Z,14.04
2019-04-20T13:30:35.770Z,14.56
2019-04-20T13:33:07.973Z,15.32
2019-04-20T13:35:38.466Z,14.49
2019-04-20T13:38:10.016Z,14.46
2019-04-20T13:40:41.806Z,12.52
2019-04-20T13:43:12.571Z,12.77
2019-04-20T13:45:47.039Z,12.79
2019-04-20T13:48:17.334Z,12.90
2019-04-20T13:50:47.592Z,13.36
2019-04-20T13:53:17.946Z,13.60
2019-04-20T13:55:51.979Z,13.79
2019-04-20T13:58:40.152Z,13.39
2019-04-20T14:01:28.733Z,13.40
2019-04-20T14:04:16.964Z,13.16
2019-04-20T14:06:48.619Z,13.34
2019-04-20T14:09:19.450Z,13.62
2019-04-20T14:11:50.027Z,13.46
2019-04-20T14:14:21.328Z,13.97
2019-04-20T14:16:52.949Z,13.46
2019-04-20T14:19:25.150Z,13.53
2019-04-20T14:21:56.444Z,13.18
2019-04-20T14:24:26.868Z,12.75
2019-04-20T14:26:57.283Z,12.83
2019-04-20T14:29:28.366Z,12.60
2019-04-20T14:32:01.522Z,13.45
2019-04-20T14:34:31.155Z,13.15
2019-04-20T14:37:02.589Z,13.02
2019-04-20T14:39:34.228Z,12.70
2019-04-20T14:42:04.691Z,12.27
2019-04-20T14:44:34.886Z,12.32
2019-04-20T14:47:05.595Z,12.21
2019-04-20T14:49:36.799Z,12.30
2019-04-20T14:52:08.244Z,12.33
2019-04-20T14:54:39.415Z,11.99
2019-04-20T14:57:09.775Z,12.22
2019-04-20T14:59:47.479Z,11.97
2019-04-20T15:02:21.513Z,11.90
2019-04-20T15:04:52.772Z,11.84
2019-04-20T15:07:24.594Z,11.63
2019-04-20T15:09:58.544Z,11.58
2019-04-20T15:12:38.897Z,11.33
2019-04-20T15:15:00.875Z,11.60
2019-04-20T15:17:45.809Z,11.43
2019-04-20T15:20:30.001Z,11.11
2019-04-20T15:23:03.393Z,11.19
2019-04-20T15:25:34.708Z,11.56
2019-04-20T15:28:06.130Z,11.22
2019-04-20T15:30:36.615Z,10.79
2019-04-20T15:33:07.245Z,10.75
2019-04-20T15:35:37.899Z,10.68
2019-04-20T15:38:09.100Z,10.56
2019-04-20T15:40:39.584Z,10.58
2019-04-20T15:43:14.400Z,10.71
2019-04-20T15:45:43.329Z,10.75
2019-04-20T15:48:14.262Z,10.88
2019-04-20T15:50:45.732Z,10.34
2019-04-20T15:53:17.464Z,10.04
2019-04-20T15:55:50.464Z,10.15
2019-04-20T15:58:20.778Z,9.85
2019-04-20T16:00:52.636Z,10.22
2019-04-20T16:03:27.529Z,10.88
2019-04-20T16:06:01.255Z,10.64
2019-04-20T16:08:34.593Z,10.53
2019-04-20T16:11:05.230Z,10.38
2019-04-20T16:13:39.630Z,10.42
2019-04-20T16:16:08.063Z,10.70
2019-04-20T16:18:39.122Z,10.70
2019-04-20T16:21:14.348Z,10.94
2019-04-20T16:23:50.578Z,10.80
2019-04-20T16:26:44.138Z,10.88
2019-04-20T16:29:15.411Z,10.93
2019-04-20T16:31:48.421Z,11.15
2019-04-20T16:34:19.153Z,11.30
2019-04-20T16:36:52.712Z,11.17
2019-04-20T16:39:22.627Z,11.18
2019-04-20T16:41:53.944Z,11.13
2019-04-20T16:44:25.144Z,10.98
2019-04-20T16:46:56.298Z,10.94
2019-04-20T16:49:26.547Z,11.13
2019-04-20T16:51:57.125Z,11.21
2019-04-20T16:54:27.954Z,11.18
2019-04-20T16:56:58.474Z,11.26
2019-04-20T16:59:33.628Z,11.39
2019-04-20T17:02:00.745Z,11.42
2019-04-20T17:04:33.402Z,11.62
2019-04-20T17:07:20.808Z,11.62
2019-04-20T17:09:51.839Z,11.76
2019-04-20T17:12:23.755Z,11.68
2019-04-20T17:14:55.537Z,11.74
2019-04-20T17:17:27.359Z,11.86
2019-04-20T17:19:57.823Z,11.86
2019-04-20T17:22:29.416Z,12.32
2019-04-20T17:25:00.074Z,12.79
2019-04-20T17:27:49.138Z,13.28
2019-04-20T17:30:59.262Z,13.32
2019-04-20T17:33:55.223Z,13.58
2019-04-20T17:36:19.751Z,13.51
2019-04-20T17:38:52.513Z,13.74
2019-04-20T17:41:40.119Z,13.76
2019-04-20T17:44:11.651Z,13.95
2019-04-20T17:46:38.395Z,14.06
2019-04-20T17:49:09.286Z,14.65
2019-04-20T17:51:47.648Z,14.74
2019-04-20T17:54:16.023Z,14.94
2019-04-20T17:56:46.748Z,15.32
2019-04-20T17:59:17.759Z,15.52
2019-04-20T18:02:17.826Z,16.25
2019-04-20T18:05:15.950Z,17.29
2019-04-20T18:07:43.980Z,18.25
2019-04-20T18:10:11.464Z,19.35
2019-04-20T18:12:32.775Z,20.17
2019-04-20T18:15:12.175Z,20.96
2019-04-20T18:18:25.629Z,21.86
2019-04-20T18:21:03.162Z,22.51
2019-04-20T18:23:39.413Z,23.46
2019-04-20T18:26:27.585Z,24.38
2019-04-20T18:29:03.033Z,25.01
2019-04-20T18:34:17.713Z,26.83
2019-04-20T18:36:47.256Z,27.21
2019-04-20T18:39:18.447Z,27.68
2019-04-20T18:41:53.615Z,28.09
2019-04-20T18:44:27.682Z,28.56
2019-04-20T18:47:30.236Z,29.10
2019-04-20T18:49:38.633Z,29.69
2019-04-20T18:51:58.052Z,29.96
2019-04-20T18:54:32.917Z,30.30
2019-04-20T18:57:01.670Z,30.61
2019-04-20T18:59:40.583Z,30.90
2019-04-20T19:02:16.214Z,31.33
2019-04-20T19:04:45.794Z,31.53
2019-04-20T19:07:23.647Z,31.89
2019-04-20T19:10:13.478Z,32.01
2019-04-20T19:12:44.993Z,32.18
2019-04-20T19:15:47.752Z,32.48
2019-04-20T19:18:57.427Z,32.73
2019-04-20T19:21:12.991Z,33.15
2019-04-20T19:23:53.318Z,34.09
2019-04-20T19:26:21.130Z,33.94
2019-04-20T19:28:55.746Z,34.03
2019-04-20T19:31:41.329Z,34.26
2019-04-20T19:34:16.670Z,34.50
2019-04-20T19:36:36.839Z,34.82
2019-04-20T19:39:19.431Z,34.92
2019-04-20T19:41:42.859Z,35.08
2019-04-20T19:44:20.431Z,35.43
2019-04-20T19:47:10.544Z,35.66
2019-04-20T19:49:25.663Z,35.79
2019-04-20T19:52:20.469Z,36.17
2019-04-20T19:54:42.551Z,36.30
2019-04-20T19:57:04.985Z,37.28
2019-04-20T19:59:34.301Z,37.24
2019-04-20T20:02:01.241Z,37.43
2019-04-20T20:04:42.456Z,37.74
2019-04-20T20:07:16.478Z,37.97
2019-04-20T20:09:48.943Z,38.16
2019-04-20T20:12:14.725Z,38.35
2019-04-20T20:14:46.594Z,38.44
2019-04-20T20:17:42.159Z,38.69
2019-04-20T20:20:14.719Z,38.77
2019-04-20T20:22:32.387Z,38.99
2019-04-20T20:24:54.915Z,39.24
2019-04-20T20:27:33.982Z,39.48
2019-04-20T20:30:05.611Z,39.61
2019-04-20T20:32:50.327Z,39.91
2019-04-20T20:35:09.984Z,40.22
2019-04-20T20:37:44.848Z,40.57
2019-04-20T20:40:19.532Z,40.87
2019-04-20T20:42:52.998Z,41.19
2019-04-20T20:45:22.950Z,41.25
2019-04-20T20:48:03.870Z,41.48
2019-04-20T20:50:44.438Z,41.56
2019-04-20T20:53:06.403Z,41.87
2019-04-20T20:55:32.176Z,42.07
2019-04-20T20:58:10.308Z,42.26
2019-04-20T21:00:45.697Z,42.55
2019-04-20T21:03:14.570Z,42.98
2019-04-20T21:05:43.530Z,43.64
2019-04-20T21:08:19.717Z,44.19
2019-04-20T21:10:54.723Z,44.45
2019-04-20T21:13:35.537Z,44.70
2019-04-20T21:16:11.930Z,44.66
2019-04-20T21:18:58.636Z,44.86
2019-04-20T21:21:21.850Z,44.92
2019-04-20T21:23:50.819Z,45.15
2019-04-20T21:26:21.711Z,45.46
2019-04-20T21:28:48.010Z,45.52
2019-04-20T21:31:23.660Z,45.61
2019-04-20T21:33:51.135Z,45.98
2019-04-20T21:36:26.235Z,46.18
2019-04-20T21:38:54.159Z,46.46
2019-04-20T21:41:27.848Z,47.40
2019-04-20T21:43:58.499Z,47.83
2019-04-20T21:46:38.923Z,48.80
2019-04-20T21:49:12.833Z,49.75
2019-04-20T21:51:44.694Z,50.24
2019-04-20T21:54:07.188Z,52.44
2019-04-20T21:56:46.132Z,52.25
2019-04-20T21:59:17.617Z,52.27
2019-04-20T22:01:53.563Z,52.22
2019-04-20T22:04:22.458Z,52.01
2019-04-20T22:07:00.470Z,51.97
2019-04-20T22:09:38.628Z,52.10
2019-04-20T22:12:03.444Z,52.04
2019-04-20T22:14:35.528Z,52.23
2019-04-20T22:17:07.797Z,52.15
2019-04-20T22:19:45.774Z,52.23
2019-04-20T22:22:22.394Z,53.35
2019-04-20T22:24:57.759Z,53.24
2019-04-20T22:27:21.130Z,53.37
2019-04-20T22:29:48.143Z,53.38
2019-04-20T22:32:21.693Z,53.02
2019-04-20T22:34:58.791Z,53.33
2019-04-20T22:37:28.733Z,53.52
2019-04-20T22:39:58.302Z,53.65
2019-04-20T22:42:37.661Z,53.71
2019-04-20T22:45:07.310Z,53.53
2019-04-20T22:47:37.093Z,53.74
2019-04-20T22:50:29.024Z,54.04
2019-04-20T22:55:42.631Z,54.56
2019-04-20T22:57:59.151Z,54.58
2019-04-20T23:00:31.130Z,54.45
2019-04-20T23:02:54.675Z,54.37
2019-04-20T23:05:26.763Z,54.48
2019-04-20T23:07:58.891Z,54.95
2019-04-20T23:10:36.885Z,55.39
2019-04-20T23:13:03.238Z,55.58
2019-04-20T23:15:34.304Z,55.77
2019-04-20T23:18:06.239Z,55.99
2019-04-20T23:20:40.354Z,56.19
2019-04-20T23:23:11.115Z,55.93
2019-04-20T23:25:45.034Z,55.80
2019-04-20T23:28:18.043Z,56.01
2019-04-20T23:30:54.295Z,56.05
2019-04-20T23:33:23.340Z,56.40
2019-04-20T23:35:57.669Z,56.73
2019-04-20T23:38:26.447Z,56.62
2019-04-20T23:40:57.660Z,56.68
2019-04-20T23:43:35.117Z,56.80
2019-04-20T23:46:26.011Z,56.87
2019-04-20T23:49:17.023Z,57.20
2019-04-20T23:52:03.632Z,57.27
2019-04-20T23:54:23.015Z,57.48
2019-04-20T23:56:48.051Z,57.68
2019-04-20T23:59:24.635Z,57.55
